createdAt,value
2022-10-05T00:00:49.819Z,80.51
2022-10-05T00:03:25.578Z,80.86
2022-10-05T00:05:58.171Z,80.72
2022-10-05T00:08:32.354Z,80.83
2022-10-05T00:11:07.596Z,80.85
2022-10-05T00:13:40.898Z,80.94
2022-10-05T00:16:17.474Z,80.82
2022-10-05T00:18:53.924Z,80.72
2022-10-05T00:21:27.813Z,80.88
2022-10-05T00:24:01.646Z,81.21
2022-10-05T00:26:34.212Z,80.84
2022-10-05T00:29:18.606Z,81.00
2022-10-05T00:31:51.093Z,81.13
2022-10-05T00:34:25.331Z,81.08
2022-10-05T00:36:58.850Z,80.72
2022-10-05T00:39:31.969Z,81.25
2022-10-05T00:42:16.935Z,80.80
2022-10-05T00:44:57.241Z,81.29
2022-10-05T00:47:40.409Z,81.34
2022-10-05T00:50:53.270Z,81.06
2022-10-05T00:53:43.099Z,81.26
2022-10-05T00:56:32.073Z,81.06
2022-10-05T00:59:13.878Z,81.14
2022-10-05T01:01:57.479Z,81.70
2022-10-05T01:04:36.838Z,81.29
2022-10-05T01:07:19.820Z,81.73
2022-10-05T01:09:57.925Z,81.13
2022-10-05T01:12:35.445Z,81.50
2022-10-05T01:15:13.053Z,81.31
2022-10-05T01:17:52.315Z,81.56
2022-10-05T01:20:35.697Z,81.50
2022-10-05T01:23:32.135Z,81.52
2022-10-05T01:26:24.244Z,81.55
2022-10-05T01:29:04.456Z,81.03
2022-10-05T01:31:42.893Z,81.49
2022-10-05T01:34:26.164Z,81.49
2022-10-05T01:37:04.787Z,81.54
2022-10-05T01:39:46.767Z,81.65
2022-10-05T01:42:29.457Z,81.67
2022-10-05T01:45:10.967Z,81.57
2022-10-05T01:47:45.892Z,81.68
2022-10-05T01:50:28.952Z,81.46
2022-10-05T01:53:13.054Z,81.45
2022-10-05T01:55:52.888Z,81.46
2022-10-05T01:58:35.504Z,81.71
2022-10-05T02:01:17.629Z,81.08
2022-10-05T02:03:54.492Z,81.42
2022-10-05T02:06:33.175Z,81.52
2022-10-05T02:09:13.089Z,81.53
2022-10-05T02:11:57.825Z,81.51
2022-10-05T02:14:36.251Z,81.59
2022-10-05T02:17:15.251Z,81.41
2022-10-05T02:19:51.237Z,81.55
2022-10-05T02:22:30.260Z,81.41
2022-10-05T02:25:09.204Z,81.64
2022-10-05T02:27:49.376Z,81.76
2022-10-05T02:30:22.166Z,81.57
2022-10-05T02:33:02.807Z,81.65
2022-10-05T02:35:35.367Z,81.52
2022-10-05T02:38:14.735Z,81.42
2022-10-05T02:40:57.397Z,81.71
2022-10-05T02:43:45.384Z,81.76
2022-10-05T02:46:28.634Z,82.09
2022-10-05T02:49:15.515Z,81.67
2022-10-05T02:51:56.820Z,81.73
2022-10-05T02:54:47.101Z,81.70
2022-10-05T02:57:26.473Z,81.64
2022-10-05T03:00:07.058Z,81.94
2022-10-05T03:02:45.126Z,81.88
2022-10-05T03:05:25.778Z,81.78
2022-10-05T03:08:03.928Z,81.71
2022-10-05T03:10:43.560Z,81.75
2022-10-05T03:13:26.233Z,81.84
2022-10-05T03:16:24.355Z,81.85
2022-10-05T03:19:10.363Z,82.01
2022-10-05T03:21:54.126Z,81.92
2022-10-05T03:24:52.298Z,81.77
2022-10-05T03:27:37.953Z,81.79
2022-10-05T03:30:17.032Z,81.74
2022-10-05T03:33:02.530Z,81.76
2022-10-05T03:35:45.679Z,81.88
2022-10-05T03:38:28.449Z,81.88
2022-10-05T03:41:11.188Z,81.72
2022-10-05T03:44:05.903Z,81.99
2022-10-05T03:46:50.304Z,81.67
2022-10-05T03:49:29.521Z,81.83
2022-10-05T03:52:09.518Z,81.92
2022-10-05T03:54:47.853Z,81.78
2022-10-05T03:57:23.522Z,81.76
2022-10-05T04:00:02.746Z,82.02
2022-10-05T04:02:53.389Z,81.71
2022-10-05T04:05:30.558Z,81.68
2022-10-05T04:08:07.889Z,81.75
2022-10-05T04:10:46.836Z,81.65
2022-10-05T04:13:27.106Z,81.78
2022-10-05T04:16:06.197Z,81.78
2022-10-05T04:18:44.939Z,81.96
2022-10-05T04:21:23.961Z,81.71
2022-10-05T04:24:03.707Z,81.82
2022-10-05T04:26:43.921Z,81.96
2022-10-05T04:29:27.089Z,81.78
2022-10-05T04:32:27.956Z,81.76
2022-10-05T04:35:15.055Z,81.93
2022-10-05T04:37:54.000Z,81.90
2022-10-05T04:40:47.319Z,81.85
2022-10-05T04:43:32.675Z,81.98
2022-10-05T04:46:18.760Z,81.72
2022-10-05T04:49:08.535Z,81.63
2022-10-05T04:51:52.270Z,81.85
2022-10-05T04:54:42.261Z,81.65
2022-10-05T04:57:21.507Z,81.91
2022-10-05T05:00:13.884Z,81.84
2022-10-05T05:03:07.830Z,82.02
2022-10-05T05:06:15.415Z,81.81
2022-10-05T05:09:02.634Z,81.91
2022-10-05T05:11:45.388Z,82.04
2022-10-05T05:14:41.419Z,81.80
2022-10-05T05:17:28.776Z,81.94
2022-10-05T05:20:16.621Z,82.04
2022-10-05T05:22:54.268Z,81.81
2022-10-05T05:25:39.265Z,81.69
2022-10-05T05:28:20.651Z,81.94
2022-10-05T05:31:04.118Z,81.89
2022-10-05T05:33:46.942Z,81.85
2022-10-05T05:36:40.748Z,81.40
2022-10-05T05:39:24.392Z,82.10
2022-10-05T05:42:10.267Z,81.73
2022-10-05T05:44:46.703Z,81.93
2022-10-05T05:47:24.720Z,81.99
2022-10-05T05:50:13.629Z,82.00
2022-10-05T05:52:50.606Z,81.99
2022-10-05T05:55:30.087Z,82.10
2022-10-05T05:58:14.052Z,82.33
2022-10-05T06:00:52.415Z,82.18
2022-10-05T06:03:38.800Z,82.06
2022-10-05T06:06:17.338Z,82.26
2022-10-05T06:08:57.063Z,82.14
2022-10-05T06:11:43.299Z,81.59
2022-10-05T06:14:25.277Z,82.00
2022-10-05T06:17:02.214Z,81.92
2022-10-05T06:19:37.771Z,82.10
2022-10-05T06:22:20.015Z,82.07
2022-10-05T06:25:03.739Z,82.00
2022-10-05T06:27:37.965Z,81.86
2022-10-05T06:30:16.180Z,81.67
2022-10-05T06:33:08.426Z,81.74
2022-10-05T06:35:54.143Z,81.74
2022-10-05T06:38:41.636Z,82.06
2022-10-05T06:41:24.084Z,82.04
2022-10-05T06:43:59.431Z,82.25
2022-10-05T06:47:02.628Z,81.92
2022-10-05T06:50:15.285Z,81.74
2022-10-05T06:53:31.474Z,81.73
2022-10-05T06:56:12.397Z,82.19
2022-10-05T06:58:56.889Z,81.71
2022-10-05T07:01:43.146Z,82.34
2022-10-05T07:04:40.914Z,82.06
2022-10-05T07:07:22.930Z,82.04
2022-10-05T07:10:10.748Z,81.98
2022-10-05T07:12:59.127Z,82.03
2022-10-05T07:15:42.301Z,82.35
2022-10-05T07:18:34.123Z,82.22
2022-10-05T07:21:15.613Z,82.01
2022-10-05T07:23:58.599Z,82.30
2022-10-05T07:26:36.878Z,82.08
2022-10-05T07:29:22.160Z,81.89
2022-10-05T07:32:07.605Z,81.56
2022-10-05T07:34:54.000Z,81.49
2022-10-05T07:38:08.234Z,81.23
2022-10-05T07:40:45.682Z,81.08
2022-10-05T07:43:40.251Z,81.13
2022-10-05T07:46:38.208Z,81.41
2022-10-05T07:49:17.706Z,80.96
2022-10-05T07:51:56.115Z,81.34
2022-10-05T07:54:38.215Z,81.17
2022-10-05T07:57:21.435Z,81.25
2022-10-05T08:00:02.009Z,81.10
2022-10-05T08:02:52.770Z,81.16
2022-10-05T08:05:29.057Z,80.83
2022-10-05T08:08:11.651Z,80.81
2022-10-05T08:10:57.452Z,80.88
2022-10-05T08:13:35.831Z,80.92
2022-10-05T08:16:14.721Z,80.76
2022-10-05T08:18:57.259Z,80.61
2022-10-05T08:21:35.205Z,80.50
2022-10-05T08:24:19.353Z,80.56
2022-10-05T08:26:55.578Z,80.26
2022-10-05T08:29:34.719Z,80.59
2022-10-05T08:32:16.386Z,80.03
2022-10-05T08:34:55.462Z,80.28
2022-10-05T08:37:32.419Z,80.02
2022-10-05T08:40:28.250Z,79.90
2022-10-05T08:43:13.183Z,79.64
2022-10-05T08:46:20.796Z,80.17
2022-10-05T08:49:36.284Z,79.66
2022-10-05T08:52:26.642Z,79.83
2022-10-05T08:55:21.699Z,79.90
2022-10-05T08:58:17.718Z,79.92
2022-10-05T09:00:59.853Z,79.85
2022-10-05T09:04:07.518Z,79.43
2022-10-05T09:07:17.529Z,79.50
2022-10-05T09:10:22.809Z,79.28
2022-10-05T09:13:41.249Z,79.71
2022-10-05T09:16:47.051Z,79.64
2022-10-05T09:19:55.743Z,79.36
2022-10-05T09:22:46.518Z,79.62
2022-10-05T09:25:23.764Z,79.48
2022-10-05T09:27:59.440Z,79.06
2022-10-05T09:30:52.734Z,78.97
2022-10-05T09:33:58.084Z,78.87
2022-10-05T09:36:59.788Z,78.79
2022-10-05T09:39:50.072Z,79.16
2022-10-05T09:43:08.367Z,78.62
2022-10-05T09:46:08.683Z,79.03
2022-10-05T09:49:08.070Z,78.64
2022-10-05T09:52:09.397Z,78.70
2022-10-05T09:55:21.069Z,78.78
2022-10-05T09:58:12.285Z,78.55
2022-10-05T10:01:09.425Z,78.18
2022-10-05T10:04:08.256Z,78.43
2022-10-05T10:07:07.762Z,78.09
2022-10-05T10:09:59.948Z,77.38
2022-10-05T10:12:57.195Z,77.64
2022-10-05T10:16:03.798Z,77.20
2022-10-05T10:19:30.149Z,77.64
2022-10-05T10:22:25.055Z,77.21
2022-10-05T10:25:21.127Z,76.80
2022-10-05T10:28:08.306Z,77.06
2022-10-05T10:31:08.285Z,76.53
2022-10-05T10:34:08.533Z,76.63
2022-10-05T10:37:03.704Z,76.30
2022-10-05T10:39:58.813Z,76.39
2022-10-05T10:42:46.511Z,75.68
2022-10-05T10:45:27.537Z,75.46
2022-10-05T10:48:05.135Z,75.86
2022-10-05T10:51:00.649Z,75.85
2022-10-05T10:54:09.249Z,75.66
2022-10-05T10:57:06.341Z,75.40
2022-10-05T11:00:15.825Z,75.70
2022-10-05T11:03:14.499Z,75.21
2022-10-05T11:06:26.155Z,74.87
2022-10-05T11:09:28.404Z,75.31
2022-10-05T11:12:54.612Z,75.56
2022-10-05T11:15:53.858Z,75.08
2022-10-05T11:18:42.670Z,74.93
2022-10-05T11:21:37.097Z,75.12
2022-10-05T11:24:54.871Z,75.33
2022-10-05T11:28:08.572Z,75.19
2022-10-05T11:31:11.546Z,74.78
2022-10-05T11:34:28.222Z,75.10
2022-10-05T11:37:29.907Z,74.72
2022-10-05T11:40:26.927Z,75.15
2022-10-05T11:43:22.812Z,74.93
2022-10-05T11:46:08.638Z,74.94
2022-10-05T11:49:08.905Z,75.25
2022-10-05T11:52:06.715Z,75.12
2022-10-05T11:55:10.922Z,75.51
2022-10-05T11:57:51.995Z,74.93
2022-10-05T12:00:28.339Z,74.82
2022-10-05T12:03:20.570Z,75.17
2022-10-05T12:06:16.094Z,75.21
2022-10-05T12:09:03.316Z,74.62
2022-10-05T12:11:57.701Z,75.31
2022-10-05T12:14:44.529Z,74.90
2022-10-05T12:17:22.722Z,74.70
2022-10-05T12:19:59.330Z,74.82
2022-10-05T12:22:37.674Z,74.48
2022-10-05T12:25:25.917Z,74.83
2022-10-05T12:28:05.024Z,74.81
2022-10-05T12:31:10.409Z,75.02
2022-10-05T12:33:49.766Z,75.27
2022-10-05T12:36:46.202Z,74.92
2022-10-05T12:39:30.153Z,74.43
2022-10-05T12:42:12.688Z,74.40
2022-10-05T12:45:05.399Z,74.73
2022-10-05T12:47:55.312Z,74.89
2022-10-05T12:50:34.741Z,74.96
2022-10-05T12:53:29.075Z,74.80
2022-10-05T12:56:08.638Z,74.41
2022-10-05T12:58:51.943Z,74.37
2022-10-05T13:01:34.391Z,73.85
2022-10-05T13:04:22.345Z,73.92
2022-10-05T13:07:12.233Z,74.38
2022-10-05T13:09:53.654Z,73.91
2022-10-05T13:12:37.074Z,74.27
2022-10-05T13:15:19.512Z,74.04
2022-10-05T13:18:03.889Z,73.59
2022-10-05T13:20:44.872Z,73.68
2022-10-05T13:23:25.129Z,73.96
2022-10-05T13:26:03.354Z,73.77
2022-10-05T13:28:42.105Z,74.04
2022-10-05T13:31:21.152Z,74.54
2022-10-05T13:34:06.836Z,74.11
2022-10-05T13:36:54.409Z,74.38
2022-10-05T13:39:51.415Z,74.60
2022-10-05T13:42:33.190Z,74.65
2022-10-05T13:45:16.016Z,74.93
2022-10-05T13:48:00.067Z,75.14
2022-10-05T13:50:35.157Z,75.12
2022-10-05T13:53:21.707Z,75.08
2022-10-05T13:56:00.511Z,74.61
2022-10-05T13:58:40.670Z,75.24
2022-10-05T14:01:17.306Z,74.82
2022-10-05T14:04:17.159Z,75.22
2022-10-05T14:06:50.213Z,75.27
2022-10-05T14:09:33.630Z,75.66
2022-10-05T14:12:20.488Z,75.19
2022-10-05T14:14:54.564Z,75.85
2022-10-05T14:17:37.863Z,75.83
2022-10-05T14:20:23.869Z,75.82
2022-10-05T14:23:00.237Z,75.70
2022-10-05T14:25:47.084Z,76.35
2022-10-05T14:28:28.609Z,76.46
2022-10-05T14:31:04.298Z,76.17
2022-10-05T14:33:37.078Z,76.23
2022-10-05T14:36:16.629Z,76.55
2022-10-05T14:38:56.240Z,76.63
2022-10-05T14:41:35.610Z,76.50
2022-10-05T14:44:27.653Z,76.91
2022-10-05T14:47:17.333Z,76.43
2022-10-05T14:50:10.829Z,76.88
2022-10-05T14:52:51.632Z,76.92
2022-10-05T14:55:44.928Z,77.06
2022-10-05T14:58:33.463Z,76.74
2022-10-05T15:01:14.861Z,76.92
2022-10-05T15:03:54.084Z,77.56
2022-10-05T15:06:33.362Z,77.49
2022-10-05T15:09:29.184Z,77.42
2022-10-05T15:12:03.441Z,77.33
2022-10-05T15:14:40.915Z,77.45
2022-10-05T15:17:18.328Z,77.48
2022-10-05T15:19:59.618Z,77.69
2022-10-05T15:22:41.648Z,77.94
2022-10-05T15:25:17.616Z,77.85
2022-10-05T15:28:05.975Z,78.03
2022-10-05T15:30:48.114Z,78.11
2022-10-05T15:33:29.632Z,78.40
2022-10-05T15:36:10.283Z,78.45
2022-10-05T15:38:59.463Z,78.05
2022-10-05T15:41:49.376Z,78.30
2022-10-05T15:44:36.661Z,78.48
2022-10-05T15:47:19.341Z,78.43
2022-10-05T15:50:05.684Z,78.56
2022-10-05T15:52:44.481Z,78.54
2022-10-05T15:55:27.021Z,78.50
2022-10-05T15:58:19.002Z,78.98
2022-10-05T16:00:58.889Z,78.71
2022-10-05T16:03:44.122Z,78.96
2022-10-05T16:06:57.013Z,78.82
2022-10-05T16:09:50.142Z,78.72
2022-10-05T16:12:32.489Z,79.19
2022-10-05T16:15:17.777Z,79.29
2022-10-05T16:18:14.350Z,79.19
2022-10-05T16:20:51.743Z,79.47
2022-10-05T16:23:36.590Z,79.06
2022-10-05T16:26:22.951Z,79.51
2022-10-05T16:29:02.852Z,79.41
2022-10-05T16:31:44.561Z,79.15
2022-10-05T16:34:29.811Z,79.26
2022-10-05T16:37:10.268Z,79.33
2022-10-05T16:39:55.541Z,79.35
2022-10-05T16:42:40.200Z,79.92
2022-10-05T16:45:45.129Z,79.70
2022-10-05T16:48:26.621Z,79.75
2022-10-05T16:51:19.957Z,80.02
2022-10-05T16:54:05.857Z,79.34
2022-10-05T16:56:42.952Z,79.68
2022-10-05T16:59:47.830Z,79.85
2022-10-05T17:02:42.565Z,79.45
2022-10-05T17:05:33.164Z,79.81
2022-10-05T17:08:33.682Z,79.54
2022-10-05T17:11:17.266Z,79.32
2022-10-05T17:14:18.774Z,79.60
2022-10-05T17:17:16.170Z,79.78
2022-10-05T17:20:07.300Z,79.89
2022-10-05T17:22:51.377Z,79.66
2022-10-05T17:25:34.643Z,79.48
2022-10-05T17:28:24.515Z,79.87
2022-10-05T17:31:15.390Z,79.47
2022-10-05T17:34:26.765Z,80.04
2022-10-05T17:37:16.907Z,79.71
2022-10-05T17:39:53.019Z,79.78
2022-10-05T17:42:57.516Z,79.84
2022-10-05T17:45:53.806Z,79.64
2022-10-05T17:49:06.813Z,79.72
2022-10-05T17:52:19.825Z,79.40
2022-10-05T17:55:21.168Z,79.59
2022-10-05T17:57:58.864Z,79.59
2022-10-05T18:00:40.513Z,79.44
2022-10-05T18:03:38.086Z,79.79
2022-10-05T18:06:37.964Z,79.41
2022-10-05T18:09:50.616Z,80.00
2022-10-05T18:12:39.933Z,79.59
2022-10-05T18:15:33.147Z,79.66
2022-10-05T18:18:41.439Z,79.37
2022-10-05T18:21:38.257Z,79.69
2022-10-05T18:24:47.101Z,79.63
2022-10-05T18:27:52.857Z,79.43
2022-10-05T18:30:26.800Z,79.17
2022-10-05T18:33:37.692Z,79.36
2022-10-05T18:36:27.477Z,79.24
2022-10-05T18:39:13.632Z,79.58
2022-10-05T18:41:57.188Z,79.55
2022-10-05T18:44:39.794Z,79.84
2022-10-05T18:47:18.777Z,79.58
2022-10-05T18:50:12.990Z,79.42
2022-10-05T18:53:08.744Z,79.70
2022-10-05T18:55:53.441Z,79.49
2022-10-05T18:58:35.986Z,79.42
2022-10-05T19:01:38.567Z,79.52
2022-10-05T19:04:22.733Z,79.73
2022-10-05T19:07:07.890Z,79.37
2022-10-05T19:10:08.868Z,79.23
2022-10-05T19:12:53.888Z,79.43
2022-10-05T19:15:35.779Z,79.37
2022-10-05T19:18:36.685Z,79.44
2022-10-05T19:21:22.486Z,79.69
2022-10-05T19:24:27.733Z,79.68
2022-10-05T19:27:07.020Z,79.71
2022-10-05T19:29:55.932Z,79.47
2022-10-05T19:32:39.602Z,79.66
2022-10-05T19:35:22.161Z,79.59
2022-10-05T19:38:14.453Z,79.46
2022-10-05T19:40:57.331Z,79.38
2022-10-05T19:43:54.285Z,79.40
2022-10-05T19:46:49.659Z,79.79
2022-10-05T19:49:43.334Z,79.38
2022-10-05T19:52:22.552Z,79.38
2022-10-05T19:55:14.115Z,79.82
2022-10-05T19:57:48.246Z,79.59
2022-10-05T20:00:24.813Z,79.69
2022-10-05T20:03:12.284Z,79.58
2022-10-05T20:05:45.484Z,79.94
2022-10-05T20:08:19.921Z,79.66
2022-10-05T20:11:12.178Z,79.89
2022-10-05T20:14:10.346Z,79.96
2022-10-05T20:17:01.429Z,80.24
2022-10-05T20:19:57.958Z,80.34
2022-10-05T20:22:34.502Z,80.42
2022-10-05T20:25:33.075Z,80.27
2022-10-05T20:28:07.458Z,79.98
2022-10-05T20:30:39.985Z,80.22
2022-10-05T20:33:14.776Z,80.21
2022-10-05T20:35:48.766Z,79.89
2022-10-05T20:38:21.629Z,79.79
2022-10-05T20:40:54.166Z,79.97
2022-10-05T20:43:26.600Z,79.88
2022-10-05T20:46:00.167Z,80.11
2022-10-05T20:48:32.865Z,80.06
2022-10-05T20:51:06.924Z,79.90
2022-10-05T20:53:39.245Z,79.95
2022-10-05T20:56:11.808Z,80.01
2022-10-05T20:58:44.481Z,80.23
2022-10-05T21:01:19.163Z,79.90
2022-10-05T21:03:51.765Z,80.12
2022-10-05T21:06:29.586Z,79.99
2022-10-05T21:09:02.207Z,80.33
2022-10-05T21:11:34.651Z,79.93
2022-10-05T21:14:07.090Z,80.24
2022-10-05T21:16:41.399Z,79.85
2022-10-05T21:19:15.059Z,80.15
2022-10-05T21:21:48.978Z,80.17
2022-10-05T21:24:21.313Z,80.34
2022-10-05T21:26:56.964Z,80.23
2022-10-05T21:29:29.752Z,79.54
2022-10-05T21:32:02.259Z,80.04
2022-10-05T21:34:34.904Z,80.06
2022-10-05T21:37:09.278Z,80.54
2022-10-05T21:39:41.856Z,79.88
2022-10-05T21:42:14.413Z,79.93
2022-10-05T21:44:46.813Z,79.83
2022-10-05T21:47:19.493Z,79.91
2022-10-05T21:49:52.293Z,79.68
2022-10-05T21:52:26.597Z,79.92
2022-10-05T21:54:59.186Z,80.04
2022-10-05T21:57:33.952Z,80.04
2022-10-05T22:00:08.561Z,79.74
2022-10-05T22:02:41.196Z,79.81
2022-10-05T22:05:13.538Z,79.72
2022-10-05T22:07:47.582Z,79.95
2022-10-05T22:10:20.056Z,80.04
2022-10-05T22:12:52.521Z,79.88
2022-10-05T22:15:25.018Z,80.00
2022-10-05T22:17:57.905Z,80.06
2022-10-05T22:20:32.059Z,79.85
2022-10-05T22:23:05.984Z,80.14
2022-10-05T22:25:38.869Z,80.01
2022-10-05T22:28:15.182Z,80.06
2022-10-05T22:30:48.390Z,80.10
2022-10-05T22:33:20.813Z,80.01
2022-10-05T22:35:53.846Z,79.95
2022-10-05T22:38:28.121Z,80.02
2022-10-05T22:41:00.777Z,79.82
2022-10-05T22:43:33.296Z,80.30
2022-10-05T22:46:10.139Z,80.23
2022-10-05T22:48:43.346Z,80.14
2022-10-05T22:51:16.002Z,80.16
2022-10-05T22:53:50.414Z,80.02
2022-10-05T22:56:22.889Z,79.95
2022-10-05T22:58:55.482Z,79.48
2022-10-05T23:01:27.985Z,79.68
2022-10-05T23:04:00.455Z,80.11
2022-10-05T23:06:32.771Z,80.10
2022-10-05T23:09:06.804Z,80.10
2022-10-05T23:11:39.869Z,79.76
2022-10-05T23:14:12.362Z,79.98
2022-10-05T23:16:45.113Z,79.70
2022-10-05T23:19:17.662Z,79.89
2022-10-05T23:21:50.205Z,79.66
2022-10-05T23:24:24.128Z,79.68
2022-10-05T23:26:56.841Z,79.70
2022-10-05T23:29:29.807Z,80.02
2022-10-05T23:32:02.471Z,80.01
2022-10-05T23:34:35.073Z,79.51
2022-10-05T23:37:07.563Z,79.66
2022-10-05T23:39:41.469Z,79.40
2022-10-05T23:42:14.678Z,79.74
